Time;durP1;ratioP1;P1;durP2;ratioP2;P2;SDS_P1;SDS_P2;PMS_P1;PMS_P2;Temp;Humidity;BMP_temperature;BMP_pressure;BME280_temperature;BME280_humidity;BME280_pressure;Samples;Min_cycle;Max_cycle;Signal;HPM_P1;HPM_P2
2023/04/07 00:01:56;;;;;;;5.13;4.30;;;6.20;99.90;;;;;;5022574;28;20201;-68
2023/04/07 00:04:22;;;;;;;6.60;3.63;;;6.20;99.90;;;;;;5014228;28;20673;-68
2023/04/07 00:06:49;;;;;;;9.18;4.70;;;6.20;99.90;;;;;;5015040;28;20225;-67
2023/04/07 00:09:16;;;;;;;6.53;3.90;;;6.20;99.90;;;;;;5033853;28;20204;-67
2023/04/07 00:11:42;;;;;;;7.40;4.13;;;6.20;99.90;;;;;;5017089;28;20704;-67
2023/04/07 00:14:09;;;;;;;6.13;4.47;;;6.20;99.90;;;;;;5026563;28;20193;-67
2023/04/07 00:16:36;;;;;;;4.43;3.95;;;6.20;99.90;;;;;;5033547;28;20697;-67
2023/04/07 00:19:04;;;;;;;7.55;4.60;;;6.20;99.90;;;;;;5014329;28;20202;-67
2023/04/07 00:21:30;;;;;;;5.47;3.97;;;6.20;99.90;;;;;;5020697;28;20623;-67
2023/04/07 00:23:58;;;;;;;4.30;3.60;;;6.20;99.90;;;;;;5033630;28;20225;-68
2023/04/07 00:26:27;;;;;;;7.45;4.20;;;6.20;99.90;;;;;;5025428;28;20217;-67
2023/04/07 00:28:54;;;;;;;4.68;4.10;;;6.20;99.90;;;;;;5031665;28;20583;-67
2023/04/07 00:31:21;;;;;;;4.88;3.60;;;6.20;99.90;;;;;;5022261;28;20289;-67
2023/04/07 00:33:48;;;;;;;7.40;4.50;;;6.20;99.90;;;;;;5022722;28;20202;-67
2023/04/07 00:36:16;;;;;;;5.60;3.90;;;6.20;99.90;;;;;;5029130;28;20218;-67
2023/04/07 00:38:43;;;;;;;5.57;3.90;;;6.20;99.90;;;;;;5021392;28;20213;-67
2023/04/07 00:41:09;;;;;;;6.00;3.70;;;6.10;99.90;;;;;;5021680;28;20209;-67
2023/04/07 00:43:36;;;;;;;6.70;4.18;;;6.00;99.90;;;;;;5020769;28;20205;-66
2023/04/07 00:46:03;;;;;;;5.18;4.00;;;5.90;99.90;;;;;;5033267;28;20226;-67
2023/04/07 00:48:30;;;;;;;6.05;4.47;;;5.80;99.90;;;;;;5026660;28;20669;-67
2023/04/07 00:50:57;;;;;;;6.93;4.47;;;5.80;99.90;;;;;;5015556;28;20558;-66
2023/04/07 00:53:25;;;;;;;7.20;4.18;;;5.80;99.90;;;;;;5020410;28;20198;-67
2023/04/07 00:55:52;;;;;;;5.35;4.00;;;5.80;99.90;;;;;;5023255;28;20296;-67
2023/04/07 00:58:19;;;;;;;6.95;4.53;;;5.70;99.90;;;;;;5033363;28;20383;-67
2023/04/07 01:00:49;;;;;;;4.38;3.97;;;5.80;99.90;;;;;;5032806;28;20209;-67
2023/04/07 01:03:21;;;;;;;5.80;4.88;;;5.80;99.90;;;;;;5033145;28;20198;-68
2023/04/07 01:05:55;;;;;;;7.82;4.60;;;5.80;99.90;;;;;;5032551;28;20233;-67
2023/04/07 01:08:29;;;;;;;6.15;4.85;;;5.80;99.90;;;;;;5027893;28;20203;-67
2023/04/07 01:11:02;;;;;;;5.88;4.63;;;5.80;99.90;;;;;;5021638;28;20213;-67
2023/04/07 01:13:34;;;;;;;7.00;4.90;;;5.90;99.90;;;;;;5013255;28;20685;-67
2023/04/07 01:16:04;;;;;;;6.97;5.07;;;5.90;99.90;;;;;;5023551;28;20222;-67
2023/04/07 01:18:33;;;;;;;6.80;4.30;;;5.90;99.90;;;;;;5026451;28;20581;-67
2023/04/07 01:21:03;;;;;;;8.18;4.30;;;5.90;99.90;;;;;;5015212;28;20206;-67
2023/04/07 01:23:49;;;;;;;6.70;4.68;;;5.90;99.90;;;;;;5018473;28;20522;-67
2023/04/07 01:26:21;;;;;;;4.28;3.85;;;5.90;99.90;;;;;;5005846;28;20214;-67
2023/04/07 01:29:16;;;;;;;5.03;4.28;;;5.90;99.90;;;;;;5029448;28;20208;-67
2023/04/07 01:31:45;;;;;;;6.68;5.05;;;5.90;99.90;;;;;;5032357;28;20206;-67
2023/04/07 01:34:14;;;;;;;5.95;4.50;;;5.90;99.90;;;;;;5004900;28;20209;-67
2023/04/07 01:36:42;;;;;;;6.20;4.40;;;5.90;99.90;;;;;;5027851;28;20226;-67
2023/04/07 01:39:10;;;;;;;5.45;4.60;;;5.90;99.90;;;;;;5020934;28;20195;-67
2023/04/07 01:41:38;;;;;;;4.10;3.70;;;5.90;99.90;;;;;;5020711;28;20666;-67
2023/04/07 01:44:07;;;;;;;6.75;4.68;;;6.00;99.90;;;;;;5012387;28;20206;-67
2023/04/07 01:46:34;;;;;;;5.10;4.30;;;6.00;99.90;;;;;;5020465;28;20222;-67
2023/04/07 01:49:03;;;;;;;5.45;4.68;;;6.00;99.90;;;;;;5022619;28;20682;-67
2023/04/07 01:51:32;;;;;;;6.05;4.15;;;6.00;99.90;;;;;;5017775;28;20221;-67
2023/04/07 01:54:01;;;;;;;4.38;3.53;;;5.90;99.90;;;;;;5012204;28;20202;-67
2023/04/07 01:56:28;;;;;;;5.18;4.10;;;5.90;99.90;;;;;;5012009;28;20634;-67
2023/04/07 01:58:55;;;;;;;7.03;4.30;;;5.80;99.90;;;;;;5012048;28;20210;-67
2023/04/07 02:01:22;;;;;;;4.95;3.90;;;5.80;99.90;;;;;;5012246;28;20222;-66
2023/04/07 02:03:53;;;;;;;6.15;4.85;;;5.80;99.90;;;;;;5020552;28;20202;-67
2023/04/07 02:06:27;;;;;;;6.18;4.40;;;5.80;99.90;;;;;;5011858;28;20625;-67
2023/04/07 02:08:59;;;;;;;5.20;4.40;;;5.80;99.90;;;;;;5012543;28;20206;-67
2023/04/07 02:11:27;;;;;;;5.05;4.43;;;5.90;99.90;;;;;;5023693;28;20201;-66
2023/04/07 02:13:55;;;;;;;5.97;4.43;;;5.90;99.90;;;;;;5031551;28;20198;-67
2023/04/07 02:16:22;;;;;;;6.43;4.78;;;5.90;99.90;;;;;;5031435;28;20234;-66
2023/04/07 02:18:50;;;;;;;5.43;3.90;;;5.80;99.90;;;;;;5030409;28;20201;-66
2023/04/07 02:21:18;;;;;;;7.03;4.70;;;5.80;99.90;;;;;;5011768;28;20199;-66
2023/04/07 02:23:46;;;;;;;6.40;5.05;;;5.70;99.90;;;;;;5019896;28;20210;-67
2023/04/07 02:26:13;;;;;;;5.85;4.60;;;5.70;99.90;;;;;;5011770;28;20594;-67
2023/04/07 02:28:40;;;;;;;5.43;3.97;;;5.70;99.90;;;;;;5018497;28;20929;-67
2023/04/07 02:31:07;;;;;;;6.57;4.63;;;5.70;99.90;;;;;;5020560;28;20230;-67
2023/04/07 02:33:33;;;;;;;6.13;4.38;;;5.80;99.90;;;;;;5025793;28;20205;-66
2023/04/07 02:36:00;;;;;;;5.63;4.22;;;5.80;99.90;;;;;;5022796;28;20656;-67
2023/04/07 02:38:27;;;;;;;7.80;4.20;;;5.80;99.90;;;;;;5025768;28;20222;-67
2023/04/07 02:40:55;;;;;;;4.43;4.03;;;5.90;99.90;;;;;;5011496;28;20585;-67
2023/04/07 02:43:24;;;;;;;6.90;4.25;;;5.90;99.90;;;;;;5103524;22;20674;-66
2023/04/07 02:45:50;;;;;;;5.78;4.10;;;6.00;99.90;;;;;;5039186;28;20275;-65
2023/04/07 02:48:17;;;;;;;5.80;4.18;;;6.10;99.90;;;;;;5039510;28;20204;-65
2023/04/07 02:50:44;;;;;;;3.97;3.42;;;6.10;99.90;;;;;;5038528;28;20201;-65
2023/04/07 02:53:11;;;;;;;6.80;5.10;;;6.10;99.90;;;;;;5043428;28;20292;-66
2023/04/07 02:55:37;;;;;;;7.13;5.13;;;6.10;99.90;;;;;;5044461;28;20204;-64
2023/04/07 02:58:05;;;;;;;7.25;5.00;;;6.10;99.90;;;;;;5047204;28;20221;-65
2023/04/07 03:00:33;;;;;;;5.85;4.50;;;6.10;99.90;;;;;;5030911;28;20205;-66
2023/04/07 03:03:00;;;;;;;6.95;4.50;;;6.10;99.90;;;;;;5048426;28;20672;-65
2023/04/07 03:05:27;;;;;;;7.45;5.00;;;6.20;99.90;;;;;;5050726;28;20205;-65
2023/04/07 03:07:53;;;;;;;5.20;3.80;;;6.20;99.90;;;;;;5050436;28;20201;-65
2023/04/07 03:10:20;;;;;;;7.43;5.15;;;6.20;99.90;;;;;;5046255;28;20220;-65
2023/04/07 03:12:47;;;;;;;6.20;4.43;;;6.10;99.90;;;;;;5038457;28;20205;-65
2023/04/07 03:15:15;;;;;;;7.50;4.97;;;6.10;99.90;;;;;;5030821;28;20299;-65
2023/04/07 03:17:42;;;;;;;5.90;4.47;;;6.10;99.90;;;;;;5037623;28;20225;-65
2023/04/07 03:20:09;;;;;;;6.13;4.50;;;6.10;99.90;;;;;;5047640;28;20231;-65
2023/04/07 03:22:36;;;;;;;4.75;4.03;;;6.10;99.90;;;;;;5036895;28;20201;-65
2023/04/07 03:25:02;;;;;;;6.00;4.25;;;6.10;99.90;;;;;;5042237;28;20267;-66
2023/04/07 03:27:29;;;;;;;6.85;4.57;;;6.20;99.90;;;;;;5050559;28;20216;-66
2023/04/07 03:29:57;;;;;;;5.65;4.82;;;6.10;99.90;;;;;;5048828;28;20296;-65
2023/04/07 03:32:25;;;;;;;8.00;4.85;;;6.10;99.90;;;;;;5050310;28;20476;-65
2023/04/07 03:34:52;;;;;;;6.95;4.78;;;6.00;99.90;;;;;;5050250;28;20205;-66
2023/04/07 03:37:18;;;;;;;6.50;4.72;;;6.00;99.90;;;;;;5021706;28;20224;-66
2023/04/07 03:39:45;;;;;;;6.53;5.07;;;6.00;99.90;;;;;;5030029;28;20209;-65
2023/04/07 03:42:13;;;;;;;5.35;3.90;;;6.00;99.90;;;;;;5049135;28;20212;-65
2023/04/07 03:44:39;;;;;;;7.75;4.88;;;6.10;99.90;;;;;;5050371;28;20206;-65
2023/04/07 03:47:06;;;;;;;4.97;4.38;;;6.00;99.90;;;;;;5031627;28;20222;-65
2023/04/07 03:49:36;;;;;;;6.50;5.00;;;6.00;99.90;;;;;;5030120;28;20611;-64
2023/04/07 03:52:02;;;;;;;6.75;4.35;;;6.00;99.90;;;;;;5027901;28;20197;-65
2023/04/07 03:54:29;;;;;;;5.63;4.35;;;6.00;99.90;;;;;;5031404;28;20580;-65
2023/04/07 03:56:56;;;;;;;4.68;4.07;;;6.00;99.90;;;;;;5029305;28;20221;-65
2023/04/07 03:59:23;;;;;;;5.43;4.20;;;6.00;99.90;;;;;;5029809;28;20229;-65
2023/04/07 04:01:50;;;;;;;6.30;5.03;;;6.10;99.90;;;;;;5029697;28;20209;-64
2023/04/07 04:04:16;;;;;;;4.30;3.90;;;6.10;99.90;;;;;;5030636;28;20297;-65
2023/04/07 04:06:44;;;;;;;7.75;4.47;;;6.10;99.90;;;;;;5030922;28;20226;-66
2023/04/07 04:09:11;;;;;;;6.25;4.65;;;6.00;99.90;;;;;;5028011;28;20209;-66
2023/04/07 04:11:38;;;;;;;6.40;4.38;;;6.00;99.90;;;;;;5028899;28;20197;-65
2023/04/07 04:14:05;;;;;;;6.60;5.00;;;6.00;99.90;;;;;;5028388;28;20197;-65
2023/04/07 04:16:34;;;;;;;5.50;4.72;;;6.10;99.90;;;;;;5032503;28;20225;-65
2023/04/07 04:19:01;;;;;;;5.28;3.90;;;6.10;99.90;;;;;;5031063;28;20224;-65
2023/04/07 04:21:27;;;;;;;6.05;4.45;;;6.10;99.90;;;;;;5032278;28;20280;-65
2023/04/07 04:23:55;;;;;;;5.05;3.97;;;6.10;99.90;;;;;;5028899;28;20194;-65
2023/04/07 04:26:24;;;;;;;6.00;4.40;;;6.10;99.90;;;;;;5031298;28;20573;-65
2023/04/07 04:28:51;;;;;;;8.70;4.10;;;6.20;99.90;;;;;;5029273;28;20197;-64
2023/04/07 04:31:18;;;;;;;4.95;4.35;;;6.20;99.90;;;;;;5030952;28;20201;-65
2023/04/07 04:33:44;;;;;;;6.63;4.32;;;6.10;99.90;;;;;;5029423;28;20595;-65
2023/04/07 04:36:11;;;;;;;4.75;4.30;;;6.10;99.90;;;;;;5030700;28;20222;-65
2023/04/07 04:38:38;;;;;;;6.25;4.72;;;6.10;99.90;;;;;;5029416;28;20221;-65
2023/04/07 04:41:06;;;;;;;6.50;4.45;;;6.10;99.90;;;;;;5032429;28;20208;-65
2023/04/07 04:43:32;;;;;;;4.78;4.00;;;6.10;99.90;;;;;;5034891;28;20209;-65
2023/04/07 04:45:59;;;;;;;6.75;4.35;;;6.10;99.90;;;;;;5032876;28;20221;-65
2023/04/07 04:48:26;;;;;;;5.22;4.55;;;6.10;99.90;;;;;;5033996;28;20575;-65
2023/04/07 04:50:52;;;;;;;6.35;4.97;;;6.10;99.90;;;;;;5034114;28;20198;-65
2023/04/07 04:53:19;;;;;;;6.00;4.80;;;6.10;99.90;;;;;;5032460;28;20206;-65
2023/04/07 04:55:50;;;;;;;6.45;4.82;;;6.00;99.90;;;;;;5031697;28;20217;-65
2023/04/07 04:58:18;;;;;;;8.15;5.15;;;6.00;99.90;;;;;;5032240;28;20257;-65
2023/04/07 05:00:45;;;;;;;5.80;4.82;;;6.00;99.90;;;;;;5032705;28;20210;-65
2023/04/07 05:03:12;;;;;;;8.50;5.63;;;5.90;99.90;;;;;;5033349;28;20198;-65
2023/04/07 05:05:38;;;;;;;7.25;5.13;;;5.90;99.90;;;;;;5033437;28;20198;-65
2023/04/07 05:08:06;;;;;;;8.65;5.53;;;5.90;99.90;;;;;;5032450;28;20194;-65
2023/04/07 05:10:32;;;;;;;6.30;4.13;;;5.90;99.90;;;;;;5033042;28;20265;-65
2023/04/07 05:12:59;;;;;;;6.80;4.97;;;5.90;99.90;;;;;;5031789;28;20404;-65
2023/04/07 05:15:27;;;;;;;6.50;5.20;;;5.90;99.90;;;;;;5033485;28;20213;-65
2023/04/07 05:17:54;;;;;;;6.35;4.95;;;5.80;99.90;;;;;;5034121;28;20272;-65
2023/04/07 05:20:20;;;;;;;7.18;5.70;;;5.80;99.90;;;;;;5031852;28;20198;-65
2023/04/07 05:22:47;;;;;;;6.13;4.57;;;5.80;99.90;;;;;;5032192;28;20202;-65
2023/04/07 05:25:14;;;;;;;4.82;4.03;;;5.80;99.90;;;;;;5032313;28;20204;-65
2023/04/07 05:27:40;;;;;;;6.90;5.55;;;5.80;99.90;;;;;;5031179;28;20218;-65
2023/04/07 05:30:08;;;;;;;7.38;4.43;;;5.80;99.90;;;;;;5030715;28;20198;-65
2023/04/07 05:32:37;;;;;;;5.93;4.95;;;5.80;99.90;;;;;;5031202;28;20198;-65
2023/04/07 05:35:04;;;;;;;7.07;5.47;;;5.80;99.90;;;;;;5031287;28;20194;-65
2023/04/07 05:37:31;;;;;;;6.88;4.25;;;5.90;99.90;;;;;;5029216;28;20619;-66
2023/04/07 05:39:57;;;;;;;8.48;5.00;;;5.90;99.90;;;;;;5030758;28;20669;-65
2023/04/07 05:42:24;;;;;;;6.22;5.13;;;5.90;99.90;;;;;;5030476;28;20214;-65
2023/04/07 05:44:51;;;;;;;9.25;4.82;;;6.00;99.90;;;;;;5031140;28;20201;-65
2023/04/07 05:47:17;;;;;;;6.45;4.72;;;5.90;99.90;;;;;;5030365;28;20198;-65
2023/04/07 05:49:46;;;;;;;6.05;4.20;;;5.90;99.90;;;;;;5030580;28;20220;-65
2023/04/07 05:52:13;;;;;;;6.35;4.43;;;5.90;99.90;;;;;;5032169;28;20202;-65
2023/04/07 05:54:40;;;;;;;5.47;4.15;;;5.90;99.90;;;;;;5032452;28;20229;-65
2023/04/07 05:57:07;;;;;;;7.72;4.20;;;5.90;99.90;;;;;;5030393;28;20222;-64
2023/04/07 05:59:34;;;;;;;7.10;4.35;;;5.90;99.90;;;;;;5030598;28;20217;-64
2023/04/07 06:02:01;;;;;;;5.72;4.55;;;6.00;99.90;;;;;;5030843;28;20202;-68
2023/04/07 06:04:27;;;;;;;12.10;5.40;;;6.00;99.90;;;;;;5030911;28;20217;-64
2023/04/07 06:06:55;;;;;;;5.93;4.75;;;6.10;99.90;;;;;;5030965;28;20591;-65
2023/04/07 06:09:22;;;;;;;5.22;4.32;;;6.10;99.90;;;;;;5030601;28;20198;-64
2023/04/07 06:11:49;;;;;;;7.13;4.70;;;6.20;99.90;;;;;;5028428;28;20201;-65
2023/04/07 06:14:17;;;;;;;6.47;4.55;;;6.30;99.90;;;;;;5030051;28;20206;-65
2023/04/07 06:16:44;;;;;;;13.90;8.88;;;6.30;99.90;;;;;;5030000;28;20228;-65
2023/04/07 06:19:11;;;;;;;25.42;14.35;;;6.40;99.90;;;;;;5029627;28;20699;-65
2023/04/07 06:21:38;;;;;;;12.35;8.13;;;6.40;99.90;;;;;;5030173;28;20206;-65
2023/04/07 06:24:07;;;;;;;9.30;6.20;;;6.50;99.90;;;;;;5031615;28;20198;-65
2023/04/07 06:26:34;;;;;;;7.82;5.20;;;6.60;99.90;;;;;;5027336;28;20222;-65
2023/04/07 06:29:01;;;;;;;8.00;5.85;;;6.60;99.90;;;;;;5029868;28;20677;-65
2023/04/07 06:31:28;;;;;;;6.55;4.75;;;6.70;99.90;;;;;;5029942;28;20698;-65
2023/04/07 06:33:55;;;;;;;6.95;4.50;;;6.80;99.90;;;;;;5028602;28;20201;-64
2023/04/07 06:36:23;;;;;;;8.55;4.68;;;6.80;99.90;;;;;;5030755;28;20720;-65
2023/04/07 06:38:50;;;;;;;6.38;5.00;;;6.80;99.90;;;;;;5030848;28;20700;-65
2023/04/07 06:41:18;;;;;;;6.55;5.88;;;6.90;99.90;;;;;;5029975;28;20209;-64
2023/04/07 06:43:46;;;;;;;5.32;4.30;;;6.90;99.90;;;;;;5032479;28;20206;-64
2023/04/07 06:46:13;;;;;;;7.07;5.00;;;7.00;99.90;;;;;;5031982;28;20620;-65
2023/04/07 06:48:40;;;;;;;6.88;5.18;;;7.10;99.90;;;;;;5029720;28;20201;-64
2023/04/07 06:51:07;;;;;;;8.10;5.75;;;7.10;99.90;;;;;;5029441;28;20206;-65
2023/04/07 06:53:33;;;;;;;5.47;4.55;;;7.20;99.90;;;;;;5029551;28;20212;-64
2023/04/07 06:56:05;;;;;;;6.07;5.25;;;7.20;99.90;;;;;;5029563;28;20221;-64
2023/04/07 06:58:33;;;;;;;7.70;6.10;;;7.20;99.90;;;;;;5026976;28;20229;-64
2023/04/07 07:01:00;;;;;;;5.43;4.93;;;7.20;99.90;;;;;;5029697;28;20198;-65
2023/04/07 07:03:28;;;;;;;9.30;5.60;;;7.30;99.90;;;;;;5031707;28;20541;-64
2023/04/07 07:05:56;;;;;;;8.43;5.82;;;7.40;99.90;;;;;;5029175;28;20746;-65
2023/04/07 07:08:23;;;;;;;6.60;4.82;;;7.40;99.90;;;;;;5028779;28;20268;-64
2023/04/07 07:10:50;;;;;;;5.85;4.20;;;7.40;99.90;;;;;;5026959;28;20208;-64
2023/04/07 07:13:17;;;;;;;7.35;4.80;;;7.50;99.90;;;;;;5028962;28;20206;-64
2023/04/07 07:15:46;;;;;;;5.82;4.90;;;7.60;99.90;;;;;;5029013;28;20229;-65
2023/04/07 07:18:12;;;;;;;5.55;4.20;;;7.70;99.90;;;;;;5028853;28;20217;-64
2023/04/07 07:20:39;;;;;;;6.47;5.22;;;7.80;99.90;;;;;;5028871;28;20208;-65
2023/04/07 07:23:06;;;;;;;6.80;5.20;;;7.80;99.90;;;;;;5028871;28;20205;-64
2023/04/07 07:25:32;;;;;;;5.95;5.30;;;7.90;99.90;;;;;;5031520;28;20206;-66
2023/04/07 07:27:59;;;;;;;6.03;4.85;;;8.00;99.90;;;;;;5029216;28;20202;-64
2023/04/07 07:30:26;;;;;;;8.10;5.57;;;8.00;99.90;;;;;;5029029;28;20453;-65
2023/04/07 07:32:55;;;;;;;6.25;4.70;;;8.00;99.90;;;;;;5030308;28;20202;-64
2023/04/07 07:35:24;;;;;;;4.88;4.35;;;7.90;99.90;;;;;;5029801;28;20233;-64
2023/04/07 07:37:50;;;;;;;8.82;4.95;;;7.70;99.90;;;;;;5026257;28;20293;-64
2023/04/07 07:40:18;;;;;;;7.82;5.07;;;7.70;99.90;;;;;;5029240;28;20310;-65
2023/04/07 07:42:45;;;;;;;12.02;4.13;;;7.80;99.90;;;;;;5029923;28;20205;-65
2023/04/07 07:45:13;;;;;;;6.80;5.03;;;7.80;99.90;;;;;;5039059;28;20200;-64
2023/04/07 07:47:39;;;;;;;8.30;5.38;;;8.00;99.90;;;;;;5049688;28;20241;-65
2023/04/07 07:50:08;;;;;;;5.43;4.60;;;8.20;99.90;;;;;;5042337;28;20194;-66
2023/04/07 07:52:35;;;;;;;5.85;4.30;;;8.30;99.90;;;;;;5034490;28;20201;-66
2023/04/07 07:55:02;;;;;;;6.72;4.85;;;8.60;99.90;;;;;;5042741;28;20198;-66
2023/04/07 07:57:30;;;;;;;8.32;5.10;;;8.80;99.90;;;;;;5029503;28;20584;-66
2023/04/07 07:59:56;;;;;;;6.43;5.82;;;9.00;99.90;;;;;;5045038;28;20221;-66
2023/04/07 08:02:28;;;;;;;5.28;4.40;;;9.10;99.90;;;;;;5047370;28;20204;-65
2023/04/07 08:04:55;;;;;;;5.70;4.68;;;9.10;99.90;;;;;;5038795;28;20201;-66
2023/04/07 08:07:23;;;;;;;5.03;4.32;;;9.10;99.90;;;;;;5029321;28;20707;-65
2023/04/07 08:09:50;;;;;;;5.03;4.53;;;9.20;99.90;;;;;;5029674;28;20614;-66
2023/04/07 08:12:17;;;;;;;6.38;5.13;;;9.40;99.90;;;;;;5039037;28;20205;-65
2023/04/07 08:14:44;;;;;;;6.20;4.15;;;9.60;99.90;;;;;;5049592;28;20197;-66
2023/04/07 08:17:11;;;;;;;4.05;3.65;;;10.10;99.90;;;;;;5052752;28;20252;-66
2023/04/07 08:19:38;;;;;;;7.97;4.47;;;10.80;99.90;;;;;;5053089;28;20219;-66
2023/04/07 08:22:05;;;;;;;4.65;4.18;;;11.80;99.90;;;;;;5046064;28;20201;-66
2023/04/07 08:24:33;;;;;;;5.87;4.40;;;12.60;99.90;;;;;;5033409;28;20229;-66
2023/04/07 08:27:00;;;;;;;4.83;4.27;;;13.30;99.90;;;;;;5040882;28;20900;-67
2023/04/07 08:29:27;;;;;;;5.97;4.27;;;14.10;99.90;;;;;;5052698;28;20455;-67
2023/04/07 08:31:53;;;;;;;4.67;3.67;;;14.80;99.90;;;;;;5053867;28;20467;-66
2023/04/07 08:34:20;;;;;;;4.10;3.70;;;15.50;99.90;;;;;;5052962;28;20459;-66
2023/04/07 08:36:47;;;;;;;4.07;3.77;;;15.80;99.40;;;;;;5053335;28;20518;-67
2023/04/07 08:39:14;;;;;;;5.50;3.73;;;16.30;99.50;;;;;;5052408;28;20475;-63
2023/04/07 08:41:44;;;;;;;4.50;3.93;;;16.90;98.80;;;;;;5053324;28;20481;-64
2023/04/07 08:44:12;;;;;;;4.57;4.00;;;17.20;98.10;;;;;;5097232;22;20493;-68
2023/04/07 08:46:39;;;;;;;4.60;3.80;;;17.70;98.30;;;;;;5013679;28;20481;-67
2023/04/07 08:49:10;;;;;;;4.30;3.40;;;17.60;96.30;;;;;;5013604;28;20457;-67
2023/04/07 08:51:38;;;;;;;3.30;3.00;;;17.90;97.70;;;;;;4998023;28;20830;-68
2023/04/07 08:54:09;;;;;;;5.43;3.80;;;18.60;96.60;;;;;;5013726;28;20895;-68
2023/04/07 08:56:39;;;;;;;4.07;3.67;;;19.40;95.30;;;;;;5013440;28;20480;-68
2023/04/07 08:59:08;;;;;;;4.10;3.70;;;19.50;95.50;;;;;;5013377;28;20531;-66
2023/04/07 09:01:36;;;;;;;5.30;3.90;;;20.00;94.60;;;;;;5013353;28;20472;-68
2023/04/07 09:04:03;;;;;;;3.63;3.30;;;20.00;93.20;;;;;;5013437;28;20964;-68
2023/04/07 09:06:30;;;;;;;4.23;3.93;;;19.10;93.60;;;;;;5013537;28;20481;-67
2023/04/07 09:08:57;;;;;;;4.77;4.30;;;17.70;93.70;;;;;;5013718;28;20544;-68
2023/04/07 09:11:24;;;;;;;4.37;3.97;;;16.60;95.50;;;;;;5013655;28;20461;-68
2023/04/07 09:13:51;;;;;;;4.60;4.20;;;16.20;96.00;;;;;;5013876;28;20461;-68
2023/04/07 09:16:19;;;;;;;4.70;4.30;;;15.70;96.50;;;;;;5012866;28;20948;-68
2023/04/07 09:18:46;;;;;;;4.60;4.10;;;15.40;97.50;;;;;;5012798;28;20511;-68
2023/04/07 09:21:13;;;;;;;5.20;3.70;;;15.80;96.80;;;;;;5010125;28;20495;-68
2023/04/07 09:23:42;;;;;;;4.33;3.93;;;15.60;96.50;;;;;;5010153;28;20461;-67
2023/04/07 09:26:21;;;;;;;5.67;3.73;;;15.20;96.60;;;;;;5011068;28;20488;-67
2023/04/07 09:28:50;;;;;;;3.80;3.50;;;14.40;97.30;;;;;;5009588;28;20461;-66
2023/04/07 09:31:20;;;;;;;6.20;4.23;;;14.20;97.80;;;;;;5011221;28;20547;-66
2023/04/07 09:33:47;;;;;;;4.20;3.80;;;14.10;98.10;;;;;;5011030;28;20471;-66
2023/04/07 09:36:13;;;;;;;4.20;3.50;;;13.80;98.20;;;;;;5010305;28;20517;-66
2023/04/07 09:38:41;;;;;;;4.27;3.60;;;13.80;98.70;;;;;;5010640;28;20873;-66
2023/04/07 09:41:09;;;;;;;4.30;3.80;;;13.60;99.20;;;;;;5011885;28;20465;-66
2023/04/07 09:43:37;;;;;;;3.30;3.00;;;13.40;98.70;;;;;;5012146;28;21054;-66
2023/04/07 09:46:12;;;;;;;4.10;3.70;;;13.20;99.90;;;;;;5011922;28;21043;-66
2023/04/07 09:48:41;;;;;;;5.47;4.30;;;13.20;99.00;;;;;;5013075;28;20506;-66
2023/04/07 09:51:10;;;;;;;4.57;3.93;;;13.50;99.10;;;;;;5012516;28;20470;-66
2023/04/07 09:53:47;;;;;;;4.40;3.83;;;14.00;98.90;;;;;;5011066;28;20461;-67
2023/04/07 09:56:16;;;;;;;5.60;4.07;;;14.40;98.80;;;;;;5010807;28;20513;-67
2023/04/07 09:58:44;;;;;;;6.23;5.73;;;15.10;98.10;;;;;;5010185;28;20461;-67
2023/04/07 10:01:12;;;;;;;3.50;3.13;;;15.60;97.60;;;;;;5010271;28;20476;-68
2023/04/07 10:03:40;;;;;;;3.97;3.40;;;16.80;96.80;;;;;;5009970;28;20465;-67
2023/04/07 10:06:07;;;;;;;3.57;3.00;;;18.30;96.00;;;;;;5009541;28;20480;-67
2023/04/07 10:08:36;;;;;;;3.10;2.80;;;19.40;94.40;;;;;;5009426;28;20465;-68
2023/04/07 10:11:05;;;;;;;3.70;3.40;;;20.10;93.50;;;;;;5009418;28;20457;-68
2023/04/07 10:13:33;;;;;;;2.80;2.50;;;21.20;91.80;;;;;;5009749;28;20472;-68
2023/04/07 10:16:02;;;;;;;4.23;2.70;;;22.10;90.80;;;;;;5008923;28;20485;-68
2023/04/07 10:18:30;;;;;;;2.77;2.57;;;22.30;89.50;;;;;;5009063;28;20461;-68
2023/04/07 10:21:01;;;;;;;3.57;2.60;;;21.40;86.60;;;;;;5008979;28;20806;-68
2023/04/07 10:23:38;;;;;;;3.17;2.87;;;19.90;90.00;;;;;;5009157;28;20880;-67
2023/04/07 10:26:08;;;;;;;4.40;3.13;;;18.90;91.00;;;;;;5008932;28;20946;-66
2023/04/07 10:28:38;;;;;;;3.30;2.80;;;17.70;93.20;;;;;;5008994;28;20465;-67
2023/04/07 10:31:05;;;;;;;4.50;2.63;;;16.60;95.40;;;;;;5010441;28;20477;-66
2023/04/07 10:33:45;;;;;;;2.93;1.90;;;15.50;96.30;;;;;;5009685;28;20465;-66
2023/04/07 10:36:14;;;;;;;2.40;2.20;;;14.30;97.50;;;;;;5008605;28;20484;-66
2023/04/07 10:38:42;;;;;;;3.57;2.77;;;13.50;99.50;;;;;;4985020;28;20473;-68
2023/04/07 10:41:33;;;;;;;2.60;2.30;;;12.70;99.90;;;;;;5002489;28;20469;-68
2023/04/07 10:44:01;;;;;;;2.33;2.07;;;12.30;99.90;;;;;;5011082;28;20457;-68
2023/04/07 10:47:06;;;;;;;2.10;1.90;;;12.00;99.90;;;;;;5010886;28;20481;-68
2023/04/07 10:49:33;;;;;;;2.93;1.50;;;11.60;99.90;;;;;;5010701;28;20460;-68
2023/04/07 10:52:30;;;;;;;2.13;1.70;;;11.20;99.90;;;;;;5011256;28;20539;-68
2023/04/07 10:55:28;;;;;;;1.50;1.40;;;10.80;99.90;;;;;;5008913;28;20476;-68
2023/04/07 10:58:19;;;;;;;2.38;1.48;;;10.40;99.90;;;;;;5007996;28;20225;-68
2023/04/07 11:01:21;;;;;;;2.40;2.20;;;10.10;99.90;;;;;;5010518;28;20245;-68
2023/04/07 11:03:58;;;;;;;2.50;2.30;;;9.50;99.90;;;;;;5008655;28;20201;-68
2023/04/07 11:06:26;;;;;;;4.72;2.13;;;9.00;99.90;;;;;;5003475;28;20241;-67
2023/04/07 11:08:53;;;;;;;2.95;1.48;;;8.70;99.90;;;;;;5010408;28;20736;-67
2023/04/07 11:11:38;;;;;;;1.48;1.38;;;8.70;99.90;;;;;;5010563;28;20195;-69
2023/04/07 11:14:05;;;;;;;2.85;1.85;;;8.70;99.90;;;;;;5011461;28;20305;-68
2023/04/07 11:16:44;;;;;;;2.25;1.75;;;8.90;99.90;;;;;;5010385;28;20226;-70
2023/04/07 11:19:12;;;;;;;2.90;1.50;;;9.00;99.90;;;;;;5001525;28;20225;-68
2023/04/07 11:21:39;;;;;;;1.65;1.48;;;9.10;99.90;;;;;;5010389;28;20213;-68
2023/04/07 11:24:06;;;;;;;3.10;1.83;;;9.20;99.90;;;;;;5006153;28;20202;-68
2023/04/07 11:26:38;;;;;;;2.20;1.52;;;9.20;99.90;;;;;;5007735;28;20233;-68
2023/04/07 11:29:05;;;;;;;3.17;1.65;;;9.30;99.90;;;;;;5007265;28;20234;-68
2023/04/07 11:31:32;;;;;;;5.88;2.08;;;9.40;99.90;;;;;;5006175;28;20225;-68
2023/04/07 11:34:00;;;;;;;3.53;2.75;;;9.40;99.90;;;;;;5008298;28;20237;-68
2023/04/07 11:36:31;;;;;;;4.43;3.30;;;9.40;99.90;;;;;;5007092;28;20218;-68
2023/04/07 11:38:58;;;;;;;2.83;2.60;;;9.60;99.90;;;;;;5008032;28;20198;-66
2023/04/07 11:41:26;;;;;;;3.10;2.05;;;9.60;99.90;;;;;;5008832;28;20206;-66
2023/04/07 11:44:09;;;;;;;3.60;2.15;;;9.70;99.90;;;;;;5009155;28;20209;-66
2023/04/07 11:46:37;;;;;;;2.45;1.90;;;9.70;99.90;;;;;;5008591;28;20230;-67
2023/04/07 11:49:12;;;;;;;3.05;1.70;;;9.60;99.90;;;;;;5009559;28;20543;-67
2023/04/07 11:51:41;;;;;;;2.55;2.03;;;9.60;99.90;;;;;;5003539;28;20202;-68
2023/04/07 11:54:08;;;;;;;4.40;1.73;;;9.60;99.90;;;;;;5010329;28;20199;-68
2023/04/07 11:56:46;;;;;;;4.63;2.25;;;9.70;99.90;;;;;;5010339;28;20878;-68
2023/04/07 11:59:21;;;;;;;4.10;2.35;;;9.90;99.90;;;;;;5010487;28;20209;-68
2023/04/07 12:01:48;;;;;;;3.45;2.42;;;10.10;99.90;;;;;;5011091;28;20607;-66
2023/04/07 12:04:16;;;;;;;3.50;3.17;;;10.10;99.90;;;;;;5010686;28;20202;-68
2023/04/07 12:06:45;;;;;;;4.07;2.90;;;10.20;99.90;;;;;;5009857;28;20237;-68
2023/04/07 12:09:27;;;;;;;5.03;3.03;;;10.20;99.90;;;;;;5009701;28;20210;-68
2023/04/07 12:11:54;;;;;;;3.85;3.45;;;10.10;99.90;;;;;;5010480;28;20194;-68
2023/04/07 12:14:20;;;;;;;3.95;3.55;;;10.00;99.90;;;;;;5010410;28;20206;-68
2023/04/07 12:16:47;;;;;;;2.88;2.47;;;10.00;99.90;;;;;;5011153;28;20218;-68
2023/04/07 12:19:14;;;;;;;2.92;2.22;;;9.90;99.90;;;;;;5010133;28;20202;-68
2023/04/07 12:21:41;;;;;;;4.13;2.28;;;9.80;99.90;;;;;;5010391;28;20203;-68
2023/04/07 12:24:09;;;;;;;2.80;2.60;;;9.80;99.90;;;;;;5010017;28;20676;-68
2023/04/07 12:26:35;;;;;;;3.58;3.33;;;9.80;99.90;;;;;;5009830;28;20233;-68
2023/04/07 12:29:03;;;;;;;3.90;3.50;;;9.70;99.90;;;;;;5009542;28;21053;-67
2023/04/07 12:31:31;;;;;;;3.10;2.80;;;9.70;99.90;;;;;;5010063;28;20207;-68
2023/04/07 12:33:57;;;;;;;3.78;3.40;;;9.60;99.90;;;;;;5010408;28;20229;-68
2023/04/07 12:36:24;;;;;;;3.83;3.03;;;9.60;99.90;;;;;;5009580;28;20555;-68
2023/04/07 12:38:51;;;;;;;3.20;2.90;;;9.50;99.90;;;;;;5009994;28;20234;-68
2023/04/07 12:41:20;;;;;;;3.15;2.80;;;9.60;99.90;;;;;;5010184;28;20210;-67
2023/04/07 12:43:46;;;;;;;3.42;3.05;;;9.60;99.90;;;;;;5010254;28;20199;-67
2023/04/07 12:46:13;;;;;;;5.35;3.17;;;9.70;99.90;;;;;;5009982;28;20744;-67
2023/04/07 12:48:40;;;;;;;4.70;2.80;;;9.70;99.90;;;;;;5009226;28;20217;-67
2023/04/07 12:51:07;;;;;;;3.85;2.95;;;9.70;99.90;;;;;;5008812;28;20218;-68
2023/04/07 12:53:34;;;;;;;3.75;3.45;;;9.70;99.90;;;;;;5010355;28;20206;-69
2023/04/07 12:56:00;;;;;;;4.25;3.50;;;9.70;99.90;;;;;;5010315;28;20223;-69
2023/04/07 12:58:29;;;;;;;7.30;3.50;;;9.70;99.90;;;;;;5010175;28;20230;-68
2023/04/07 13:00:57;;;;;;;3.67;3.35;;;9.70;99.90;;;;;;5010614;28;20226;-68
2023/04/07 13:03:23;;;;;;;3.80;3.40;;;9.70;99.90;;;;;;5013899;28;20577;-68